Home > Products > Valid Products > TAF

000
FTUS44 KBMX 041128
TAFBHM
TAF
KBHM 041128Z 0412/0512 12008KT 4SM -TSRA BKN025CB BKN050
      TEMPO 0412/0414 21010G18KT 1SM TSRA
     FM041800 24010KT 4SM SHRA VCTS OVC050CB
     FM050500 23003KT 6SM BR VCTS SCT015CB OVC025=



000
FTUS44 KBMX 041128
TAFTCL
TAF
KTCL 041128Z 0412/0512 17004KT P6SM VCTS SCT007CB BKN025
     FM041330 15008KT 4SM -TSRA SCT025CB BKN050
      TEMPO 0414/0416 21010G18KT 2SM TSRA SCT025CB BKN035
     FM041900 24010KT 4SM SHRA VCTS OVC050CB
     FM050500 23003KT 6SM BR VCTS SCT015CB OVC025=



000
FTUS44 KBMX 041128
TAFMGM
TAF
KMGM 041128Z 0412/0512 17005KT P6SM SCT025
     FM041500 28004KT P6SM SCT050
     FM041900 25005KT P6SM VCTS BKN050CB
     FM042200 23007KT 4SM TSRA BKN025CB OVC050
     FM050500 19005KT 4SM SHRA VCTS BKN035CB OVC050=



000
FTUS44 KBMX 041128
TAFANB
TAF
KANB 041128Z 0412/0512 12008KT 4SM -TSRA SCT040CB BKN050
      TEMPO 0412/0414 21010G18KT 2SM TSRA SCT025CB BKN035
     FM041900 24010KT 4SM SHRA VCTS OVC050CB
     FM050500 23003KT 6SM BR VCTS SCT015CB OVC025=



000
FTUS44 KBMX 041128
TAFTOI
TAF
KTOI 041128Z 0412/0512 17005KT P6SM BKN006
     FM041400 22006KT P6SM BKN015 OVC035
     FM041500 28004KT P6SM SCT050
     FM041900 25005KT P6SM VCTS BKN050CB
     FM042200 23007KT 4SM TSRA BKN025CB OVC050
     FM050500 19005KT 4SM SHRA VCTS BKN035CB OVC050=



000
FTUS44 KBMX 041128
TAFEET
TAF
KEET 041128Z 0412/0512 19004KT P6SM VCTS OVC007CB
     FM041300 15008KT 4SM -TSRA SCT025CB BKN050
      TEMPO 0414/0416 21010G18KT 2SM TSRA SCT025CB BKN035
     FM041900 24010KT 4SM SHRA VCTS OVC050CB
     FM050500 23003KT 6SM BR VCTS SCT015CB OVC025=



000
FTUS44 KBMX 041007 AAA
TAFEET
TAF AMD
KEET 041007Z 0410/0506 19004KT P6SM VCSH OVC010
     FM041500 22004KT P6SM VCTS BKN050CB
     FM041800 23007KT P6SM VCTS BKN050CB=



000
FTUS44 KBMX 041007 AAB
TAFTCL
TAF AMD
KTCL 041007Z 0410/0506 17004KT P6SM VCTS BKN025CB BKN050
      TEMPO 0410/0412 BKN015CB
     FM041500 22003KT P6SM VCSH OVC040
     FM041800 22006KT P6SM VCTS BKN050CB=



000
FTUS44 KBMX 041005 AAB
TAFANB
TAF AMD
KANB 041005Z 0410/0506 20004KT P6SM SHRA VCTS BKN035CB BKN050
      TEMPO 0410/0411 2SM TSRA
     FM041500 24006KT P6SM OVC040
     FM041800 23010KT P6SM VCTS BKN050CB=



000
FTUS44 KBMX 041005 AAB
TAFANB
TAF AMD
KANB 041005Z 0410/0506 20004KT P6SM SHRA VCTS BKN035CB BKN050
      TEMPO 0410/0411 2SM TSRA
     FM041500 24006KT P6SM OVC040
     FM041800 23010KT P6SM VCTS BKN050CB=



000
FTUS44 KBMX 040807 AAA
TAFTCL
TAF AMD
KTCL 040807Z 0408/0506 17004KT P6SM VCSH BKN050
      TEMPO 0408/0411 BKN025
     FM041500 22003KT P6SM VCSH OVC040
     FM041800 22006KT P6SM VCTS BKN050CB=



000
FTUS44 KBMX 040807 AAA
TAFTCL
TAF AMD
KTCL 040807Z 0408/0506 17004KT P6SM VCSH BKN050
      TEMPO 0408/0411 BKN025
     FM041500 22003KT P6SM VCSH OVC040
     FM041800 22006KT P6SM VCTS BKN050CB=



000
FTUS44 KBMX 040805 AAA
TAFBHM
TAF AMD
KBHM 040805Z 0408/0506 13004KT P6SM VCTS SCT050CB BKN070 OVC250
      TEMPO 0408/0411 4SM TSRA SCT025CB BKN050
     FM041500 24008KT P6SM VCSH OVC040
     FM041800 24010KT P6SM VCTS OVC050CB=



000
FTUS44 KBMX 040805 AAA
TAFANB
TAF AMD
KANB 040805Z 0408/0506 20004KT P6SM SHRA VCTS BKN035CB BKN050
     FM041500 24006KT P6SM OVC040
     FM041800 23010KT P6SM VCTS BKN050CB=



000
FTUS44 KBMX 040715 AAA
TAFTOI
TAF AMD
KTOI 040715Z 0407/0506 17005KT P6SM OVC015
     FM041500 28004KT P6SM SCT050
     FM041800 28005KT P6SM VCTS BKN050CB=



000
FTUS44 KBMX 040715 AAA
TAFTOI
TAF AMD
KTOI 040715Z 0407/0506 17005KT P6SM OVC015
     FM041500 28004KT P6SM SCT050
     FM041800 28005KT P6SM VCTS BKN050CB=



000
FTUS44 KBMX 040542 CCA
TAFANB
TAF COR
KANB 040542Z 0406/0506 20004KT P6SM SHRA VCTS BKN025CB BKN050
     FM040930 24005KT P6SM OVC040
     FM041500 24006KT P6SM OVC040
     FM041800 23010KT P6SM VCTS BKN050CB=



000
FTUS44 KBMX 040520
TAFANB
TAF
KANB 040520Z 0406/0506 20004KT P6SM VCSH BKN050
     FM040800 24005KT P6SM OVC040
     FM041500 24006KT P6SM OVC040
     FM041800 23010KT P6SM VCTS BKN050CB=



000
FTUS44 KBMX 040520
TAFTCL
TAF
KTCL 040520Z 0406/0506 17004KT P6SM VCSH BKN050
     FM041000 21010KT P6SM OVC040
     FM041500 22003KT P6SM VCSH OVC040
     FM041800 22006KT P6SM VCTS BKN050CB=



000
FTUS44 KBMX 040520
TAFEET
TAF
KEET 040520Z 0406/0506 19004KT P6SM VCSH OVC040
     FM041000 16003KT P6SM OVC040
     FM041500 22004KT P6SM VCSH BKN050
     FM041800 23007KT P6SM VCTS BKN050CB=



000
FTUS44 KBMX 040520
TAFBHM
TAF
KBHM 040520Z 0406/0506 13004KT P6SM VCSH SCT050 BKN070 OVC250
     FM041000 20006KT P6SM OVC040
     FM041500 24008KT P6SM VCSH OVC040
     FM041800 24010KT P6SM VCTS OVC050CB=



000
FTUS44 KBMX 040520
TAFTOI
TAF
KTOI 040520Z 0406/0506 20003KT P6SM BKN250
     FM040900 17005KT P6SM OVC025
     FM041500 28004KT P6SM SCT050
     FM041800 28005KT P6SM VCTS BKN050CB=



000
FTUS44 KBMX 040520
TAFMGM
TAF
KMGM 040520Z 0406/0506 25005KT P6SM VCTS SCT050CB OVC250
      TEMPO 0406/0407 TSRA BKN050CB
     FM040900 17005KT P6SM OVC025
     FM041500 28004KT P6SM SCT050
     FM041800 25005KT P6SM VCTS BKN050CB=



000
FTUS44 KBMX 040319 AAA
TAFANB
TAF AMD
KANB 040319Z 0403/0424 20004KT P6SM BKN050
     FM040500 22007KT P6SM VCSH BKN050
     FM041100 24005KT P6SM OVC040
     FM041800 23010KT P6SM OVC100=



000
FTUS44 KBMX 040317 AAA
TAFBHM
TAF AMD
KBHM 040317Z 0403/0424 13004KT P6SM VCSH SCT050 BKN070 OVC250
      TEMPO 0403/0405 -SHRA BKN050
     FM040800 20006KT P6SM OVC040
     FM041700 24010KT P6SM VCTS OVC050CB=



000
FTUS44 KBMX 040218 AAA
TAFEET
TAF AMD
KEET 040218Z 0402/0424 19004KT P6SM VCTS SCT050CB BKN150
     FM040330 20007KT 3SM TSRA BKN015CB OVC050
     FM040800 20011KT P6SM OVC040
     FM041800 23007KT P6SM OVC100=



000
FTUS44 KBMX 040142 AAA
TAFTCL
TAF AMD
KTCL 040142Z 0402/0424 17004KT P6SM VCTS BKN050CB
      TEMPO 0402/0405 VRB05G15KT 3SM TSRA BKN015CB OVC050
     FM040800 21010KT P6SM OVC040
     FM041800 22006KT P6SM OVC250=



000
FTUS44 KBMX 040142 AAA
TAFTCL
TAF AMD
KTCL 040142Z 0402/0424 17004KT P6SM VCTS BKN050CB
      TEMPO 0402/0405 VRB05G15KT 3SM TSRA BKN015CB OVC050
     FM040800 21010KT P6SM OVC040
     FM041800 22006KT P6SM OVC250=



000
FTUS44 KBMX 040021 AAB
TAFMGM
TAF AMD
KMGM 040021Z 0400/0424 22005KT P6SM VCTS SCT050CB OVC250
      TEMPO 0400/0401 VRB15G35KT 4SM TSRA BKN050CB
     FM040130 26003KT P6SM OVC250
     FM040900 17005KT P6SM OVC025
     FM041500 28004KT P6SM SCT050=



000
FTUS44 KBMX 040013 AAA
TAFMGM
TAF AMD
KMGM 040013Z 0400/0424 22005KT P6SM VCTS SCT050CB OVC250
      TEMPO 0400/0401 VRB07G20KT 4SM TSRA BKN050CB
     FM040130 26003KT P6SM OVC250
     FM040900 17005KT P6SM OVC025
     FM041500 28004KT P6SM SCT050=



000
FTUS44 KBMX 032324
TAFMGM
TAF
KMGM 032324Z 0400/0424 22005KT P6SM VCTS SCT050CB OVC250
     FM040130 26003KT P6SM OVC250
     FM040900 17005KT P6SM OVC025
     FM041500 28004KT P6SM SCT050=



000
FTUS44 KBMX 032324
TAFANB
TAF
KANB 032324Z 0400/0424 22004KT P6SM BKN050
     FM040600 22007KT 3SM +TSRA BKN015CB OVC030
     FM041100 24012KT P6SM OVC040
     FM041800 23011KT P6SM OVC100=



000
FTUS44 KBMX 032324
TAFBHM
TAF
KBHM 032324Z 0400/0424 21006KT P6SM BKN150
     FM040530 21010KT 3SM +TSRA BKN015CB OVC030
     FM041000 23012KT P6SM OVC040
     FM041800 24015KT P6SM VCTS OVC050CB=



000
FTUS44 KBMX 032324
TAFTOI
TAF
KTOI 032324Z 0400/0424 20003KT P6SM BKN250
     FM040900 17005KT P6SM OVC025
     FM041500 28004KT P6SM SCT050=



000
FTUS44 KBMX 032324
TAFEET
TAF
KEET 032324Z 0400/0424 19004KT P6SM VCTS SCT050CB BKN150
     FM040200 18001KT 5SM BR BKN050
     FM040530 21007KT 3SM +TSRA BKN015CB OVC030
     FM041000 22011KT P6SM OVC040
     FM041800 23007KT P6SM OVC100=



000
FTUS44 KBMX 032324
TAFTCL
TAF
KTCL 032324Z 0400/0424 17004KT P6SM VCTS BKN050CB
     FM040200 01003KT P6SM OVC100
     FM040500 18006KT 3SM +TSRA BKN015CB OVC030
     FM041000 21010KT P6SM OVC040
     FM041800 22006KT P6SM OVC250=



000
FTUS44 KBMX 032124 AAA
TAFTCL
TAF AMD
KTCL 032124Z 0321/0418 26010KT P6SM VCSH BKN040
      TEMPO 0321/0323 2SM TSRA BR BKN025CB OVC040
     FM040000 17004KT P6SM BKN050
     FM040500 18006KT 3SM +TSRA BKN015CB OVC030
     FM041000 21010KT P6SM OVC040=



000
FTUS44 KBMX 032108 AAA
TAFEET
TAF AMD
KEET 032108Z 0321/0418 26010KT P6SM BKN040
      TEMPO 0321/0323 5SM -SHRA BR BKN025 OVC050
     FM040000 19004KT P6SM BKN050
     FM040500 21007KT 3SM +TSRA BKN015CB OVC030
     FM041000 22011KT P6SM OVC040=



000
FTUS44 KBMX 032108 AAA
TAFEET
TAF AMD
KEET 032108Z 0321/0418 26010KT P6SM BKN040
      TEMPO 0321/0323 5SM -SHRA BR BKN025 OVC050
     FM040000 19004KT P6SM BKN050
     FM040500 21007KT 3SM +TSRA BKN015CB OVC030
     FM041000 22011KT P6SM OVC040=



000
FTUS44 KBMX 031938 AAA
TAFANB
TAF AMD
KANB 031938Z 0320/0418 26010KT P6SM BKN040
     FM040000 22004KT P6SM BKN050
     FM040600 22007KT 3SM +TSRA BKN015CB OVC030
     FM041100 24012KT P6SM OVC020=



000
FTUS44 KBMX 031937 AAA
TAFBHM
TAF AMD
KBHM 031937Z 0320/0418 26010KT P6SM BKN040
     FM040000 21006KT P6SM BKN050
     FM040500 21010KT 3SM +TSRA BKN015CB OVC030
     FM041000 23012KT P6SM OVC040=



000
FTUS44 KBMX 031738
TAFEET
TAF
KEET 031738Z 0318/0418 26010KT P6SM BKN040
      TEMPO 0318/0321 3SM SHRA BR BKN025 OVC050
     FM040000 19004KT P6SM BKN050
     FM040500 21007KT 3SM +TSRA BKN015CB OVC030
     FM041000 22011KT P6SM OVC040=



000
FTUS44 KBMX 031738
TAFMGM
TAF
KMGM 031738Z 0318/0418 25010G18KT P6SM SCT035 BKN250
     FM040000 20003KT P6SM OVC250
     FM040900 21005KT P6SM VCSH BKN020
     FM041400 22007KT P6SM VCSH BKN035=



000
FTUS44 KBMX 031738
TAFANB
TAF
KANB 031738Z 0318/0418 26010KT P6SM BKN040
      TEMPO 0318/0321 3SM SHRA BR BKN025 OVC050
     FM040000 22004KT P6SM BKN050
     FM040600 22007KT 3SM +TSRA BKN015CB OVC030
     FM041100 24012KT P6SM OVC020=



000
FTUS44 KBMX 031738
TAFTCL
TAF
KTCL 031738Z 0318/0418 26010KT P6SM VCSH BKN040
     FM040000 17004KT P6SM BKN050
     FM040500 18006KT 3SM +TSRA BKN015CB OVC030
     FM041000 21010KT P6SM OVC040=



000
FTUS44 KBMX 031738
TAFTOI
TAF
KTOI 031738Z 0318/0418 25010G18KT P6SM SCT035 BKN250
     FM040000 20003KT P6SM BKN250
     FM040700 20003KT 5SM BR OVC015
     FM041400 26006KT P6SM BKN035=



000
FTUS44 KBMX 031738
TAFBHM
TAF
KBHM 031738Z 0318/0418 26010KT P6SM BKN040
      TEMPO 0318/0321 3SM SHRA BR BKN025 OVC050
     FM040000 21006KT P6SM BKN050
     FM040500 21010KT 3SM +TSRA BKN015CB OVC030
     FM041000 23012KT P6SM OVC040=



000
FTUS44 KBMX 031604 AAA
TAFTCL
TAF AMD
KTCL 031604Z 0316/0412 24009KT P6SM VCSH SCT030 OVC120
     FM032100 24014G22KT P6SM VCTS SCT050CB
     FM040200 32006KT 4SM SHRA VCTS SCT050CB OVC100
     FM040500 25010KT 2SM TSRA BKN007CB OVC015=



000
FTUS44 KBMX 031542 AAA
TAFTOI
TAF AMD
KTOI 031542Z 0316/0412 26009KT P6SM SCT030
     FM040300 21007KT P6SM OVC250
     FM040700 23004KT 4SM BR OVC015=



000
FTUS44 KBMX 031541 AAC
TAFANB
TAF AMD
KANB 031541Z 0316/0412 24010KT P6SM BKN040
     FM032000 25010KT 3SM SHRA BR BKN035 OVC050
      TEMPO 0320/0322 1SM +TSRA BR BKN025CB OVC040
     FM032200 24014G22KT P6SM VCTS SCT050CB
     FM040300 32006KT 4SM SHRA VCTS SCT050CB OVC100
     FM040600 25010KT 2SM TSRA BKN007CB OVC015=



000
FTUS44 KBMX 031539 AAB
TAFBHM
TAF AMD
KBHM 031539Z 0316/0412 27008KT P6SM BKN035
     FM031900 25010KT 3SM SHRA BR BKN035 OVC050
      TEMPO 0319/0321 1SM +TSRA BR BKN025CB OVC035
     FM032100 24014G22KT P6SM VCTS SCT050CB
     FM040300 32006KT 4SM SHRA VCTS SCT050CB OVC100
     FM040600 25010KT 2SM TSRA BKN007CB OVC015=



000
FTUS44 KBMX 031329 AAB
TAFANB
TAF AMD
KANB 031329Z 0313/0412 21010KT 4SM SHRA VCTS BKN015CB OVC050
      TEMPO 0313/0316 21010G20KT 2SM TSRA SCT015CB BKN035
     FM031700 25013G20KT P6SM VCSH BKN050 OVC100
     FM032100 24014G22KT P6SM VCTS SCT050CB
     FM040300 32006KT 4SM SHRA VCTS SCT050CB OVC100
     FM040600 25010KT 2SM TSRA BKN007CB OVC015=



000
FTUS44 KBMX 031250 AAA
TAFEET
TAF AMD
KEET 031250Z 0313/0412 22008KT P6SM SCT015 BKN035
     FM031700 26010KT P6SM VCTS SCT050CB
     FM032100 24014G22KT P6SM VCTS SCT050CB
     FM040300 32006KT 4SM SHRA VCTS SCT050CB OVC100
     FM040600 25010KT 2SM TSRA BKN007CB OVC015=



000
FTUS44 KBMX 031250 AAA
TAFMGM
TAF AMD
KMGM 031250Z 0313/0412 22007KT P6SM SCT015
     FM031800 25010KT P6SM OVC250
     FM040400 24004KT P6SM OVC250
     FM040700 21005KT P6SM VCSH OVC250
     FM040900 21003KT 4SM SHRA OVC025=



000
FTUS44 KBMX 031250 AAA
TAFEET
TAF AMD
KEET 031250Z 0313/0412 22008KT P6SM SCT015 BKN035
     FM031700 26010KT P6SM VCTS SCT050CB
     FM032100 24014G22KT P6SM VCTS SCT050CB
     FM040300 32006KT 4SM SHRA VCTS SCT050CB OVC100
     FM040600 25010KT 2SM TSRA BKN007CB OVC015=



000
FTUS44 KBMX 031250 AAA
TAFMGM
TAF AMD
KMGM 031250Z 0313/0412 22007KT P6SM SCT015
     FM031800 25010KT P6SM OVC250
     FM040400 24004KT P6SM OVC250
     FM040700 21005KT P6SM VCSH OVC250
     FM040900 21003KT 4SM SHRA OVC025=



000
FTUS44 KBMX 031249 AAA
TAFBHM
TAF AMD
KBHM 031249Z 0313/0412 24010KT 6SM SHRA VCTS BKN025CB OVC050
      TEMPO 0313/0315 29012G25KT 2SM TSRA SCT015CB BKN025
     FM031700 25013G20KT P6SM VCSH BKN050 OVC100
     FM032100 24014G22KT P6SM VCTS SCT050CB
     FM040300 32006KT 4SM SHRA VCTS SCT050CB OVC100
     FM040600 25010KT 2SM TSRA BKN007CB OVC015=



000
FTUS44 KBMX 031249 AAA
TAFBHM
TAF AMD
KBHM 031249Z 0313/0412 24010KT 6SM SHRA VCTS BKN025CB OVC050
      TEMPO 0313/0315 29012G25KT 2SM TSRA SCT015CB BKN025
     FM031700 25013G20KT P6SM VCSH BKN050 OVC100
     FM032100 24014G22KT P6SM VCTS SCT050CB
     FM040300 32006KT 4SM SHRA VCTS SCT050CB OVC100
     FM040600 25010KT 2SM TSRA BKN007CB OVC015=



000
FTUS44 KBMX 031227 AAA
TAFANB
TAF AMD
KANB 031227Z 0312/0412 21010G20KT 4SM SHRA VCTS BKN015CB OVC050
      TEMPO 0312/0314 2SM TSRA SCT015CB BKN035
     FM031700 25013G20KT P6SM VCSH BKN050 OVC100
     FM032100 24014G22KT P6SM VCTS SCT050CB
     FM040300 32006KT 4SM SHRA VCTS SCT050CB OVC100
     FM040600 25010KT 2SM TSRA BKN007CB OVC015=



000
FTUS44 KBMX 031227 AAA
TAFANB
TAF AMD
KANB 031227Z 0312/0412 21010G20KT 4SM SHRA VCTS BKN015CB OVC050
      TEMPO 0312/0314 2SM TSRA SCT015CB BKN035
     FM031700 25013G20KT P6SM VCSH BKN050 OVC100
     FM032100 24014G22KT P6SM VCTS SCT050CB
     FM040300 32006KT 4SM SHRA VCTS SCT050CB OVC100
     FM040600 25010KT 2SM TSRA BKN007CB OVC015=



000
FTUS44 KBMX 031120
TAFMGM
TAF
KMGM 031120Z 0312/0412 22007KT P6SM BKN015
     FM031800 25010KT P6SM OVC250
     FM040400 24004KT P6SM OVC250
     FM040700 21005KT P6SM VCSH OVC250
     FM040900 21003KT 4SM SHRA OVC025=



000
FTUS44 KBMX 031120
TAFBHM
TAF
KBHM 031120Z 0312/0412 21012G24KT 4SM SHRA VCTS BKN025CB OVC050
     FM031700 25013G20KT P6SM VCSH BKN050 OVC100
     FM032100 24014G22KT P6SM VCTS SCT050CB
     FM040300 32006KT 4SM SHRA VCTS SCT050CB OVC100
     FM040600 25010KT 2SM TSRA BKN007CB OVC015=



000
FTUS44 KBMX 031120
TAFMGM
TAF
KMGM 031120Z 0312/0412 22007KT P6SM BKN015
     FM031800 25010KT P6SM OVC250
     FM040400 24004KT P6SM OVC250
     FM040700 21005KT P6SM VCSH OVC250
     FM040900 21003KT 4SM SHRA OVC025=



000
FTUS44 KBMX 031120
TAFTOI
TAF
KTOI 031120Z 0312/0412 21007KT P6SM BKN010
     FM031700 26009KT P6SM BKN250
     FM040300 21007KT P6SM OVC250
     FM040700 23004KT 4SM BR OVC015=



000
FTUS44 KBMX 031120
TAFBHM
TAF
KBHM 031120Z 0312/0412 21012G24KT 4SM SHRA VCTS BKN025CB OVC050
     FM031700 25013G20KT P6SM VCSH BKN050 OVC100
     FM032100 24014G22KT P6SM VCTS SCT050CB
     FM040300 32006KT 4SM SHRA VCTS SCT050CB OVC100
     FM040600 25010KT 2SM TSRA BKN007CB OVC015=



000
FTUS44 KBMX 031120
TAFTCL
TAF
KTCL 031120Z 0312/0412 22008KT P6SM VCSH BKN025
     FM031700 26010KT P6SM VCTS SCT050CB
     FM032100 24014G22KT P6SM VCTS SCT050CB
     FM040200 32006KT 4SM SHRA VCTS SCT050CB OVC100
     FM040500 25010KT 2SM TSRA BKN007CB OVC015=



000
FTUS44 KBMX 031120
TAFEET
TAF
KEET 031120Z 0312/0412 22008KT P6SM BKN015
     FM031700 26010KT P6SM VCTS SCT050CB
     FM032100 24014G22KT P6SM VCTS SCT050CB
     FM040300 32006KT 4SM SHRA VCTS SCT050CB OVC100
     FM040600 25010KT 2SM TSRA BKN007CB OVC015=



000
FTUS44 KBMX 031120
TAFANB
TAF
KANB 031120Z 0312/0412 21010G20KT 4SM SHRA VCTS BKN015CB OVC050
     FM031700 25013G20KT P6SM VCSH BKN050 OVC100
     FM032100 24014G22KT P6SM VCTS SCT050CB
     FM040300 32006KT 4SM SHRA VCTS SCT050CB OVC100
     FM040600 25010KT 2SM TSRA BKN007CB OVC015=



000
FTUS44 KBMX 030520
TAFEET
TAF
KEET 030520Z 0306/0406 20006KT P6SM SCT150 OVC250
     FM031000 22008KT P6SM VCSH BKN025
     FM031500 25010KT P6SM OVC100
     FM031800 26010KT P6SM VCTS SCT050CB=



000
FTUS44 KBMX 030520
TAFMGM
TAF
KMGM 030520Z 0306/0406 22007KT P6SM SCT025 BKN250
     FM031800 25010KT P6SM OVC250
     FM040000 24004KT P6SM OVC250=



000
FTUS44 KBMX 030520
TAFTCL
TAF
KTCL 030520Z 0306/0406 22008KT P6SM SCT150 OVC250
     FM031000 21010KT P6SM VCSH BKN025
     FM031500 25010KT P6SM OVC100
     FM031800 25008G15KT P6SM VCTS SCT050CB BKN250=



000
FTUS44 KBMX 030520
TAFTOI
TAF
KTOI 030520Z 0306/0406 21007KT P6SM SCT025 BKN200
     FM031800 26010KT P6SM OVC250
     FM040000 21007KT P6SM OVC250=



000
FTUS44 KBMX 030520
TAFANB
TAF
KANB 030520Z 0306/0406 22008KT P6SM SCT150 OVC250
     FM031000 21010KT P6SM VCSH BKN025
     FM031500 25010KT P6SM OVC100
     FM031800 25012G22KT P6SM VCTS SCT050CB=



000
FTUS44 KBMX 030520
TAFBHM
TAF
KBHM 030520Z 0306/0406 22010KT P6SM SCT150 OVC250
     FM031000 21010KT P6SM VCSH BKN025
     FM031500 25013KT P6SM OVC100
     FM031800 24014KT P6SM VCTS SCT050CB=



000
FTUS44 KBMX 022326
TAFANB
TAF
KANB 022326Z 0300/0324 22008KT P6SM SCT150 OVC250
     FM031000 21010KT P6SM BKN025
     FM031500 25010KT P6SM OVC100
     FM031800 25012G22KT P6SM BKN250 PROB30 0318/0319 4SM TS
      BKN050CB=



000
FTUS44 KBMX 022326
TAFBHM
TAF
KBHM 022326Z 0300/0324 22010KT P6SM SCT150 OVC250
     FM031000 21010KT P6SM BKN025
     FM031500 25013KT P6SM OVC100
     FM031800 24014KT P6SM SCT050 PROB30 0318/0321 P6SM TS BKN050CB=



000
FTUS44 KBMX 022326
TAFTOI
TAF
KTOI 022326Z 0300/0324 21007KT P6SM SCT025 BKN200
     FM031800 26010KT P6SM OVC250=



000
FTUS44 KBMX 022326
TAFEET
TAF
KEET 022326Z 0300/0324 20006KT P6SM SCT150 OVC250
     FM031000 22008KT P6SM BKN025
     FM031500 25010KT P6SM OVC100
     FM031800 26012KT P6SM OVC250=



000
FTUS44 KBMX 022326
TAFMGM
TAF
KMGM 022326Z 0300/0324 22007KT P6SM SCT150 BKN250
     FM031800 25010KT P6SM OVC250=



000
FTUS44 KBMX 022326
TAFTCL
TAF
KTCL 022326Z 0300/0324 22008KT P6SM SCT150 OVC250
     FM030600 21012KT P6SM BKN025
     FM031200 23012KT P6SM VCTS BKN015CB=



000
FTUS44 KBMX 022326
TAFTOI
TAF
KTOI 022326Z 0300/0324 21007KT P6SM SCT025 BKN200
     FM031800 26010KT P6SM OVC250=



000
FTUS44 KBMX 022326
TAFMGM
TAF
KMGM 022326Z 0300/0324 22007KT P6SM SCT150 BKN250
     FM031800 25010KT P6SM OVC250=



000
FTUS44 KBMX 022326
TAFBHM
TAF
KBHM 022326Z 0300/0324 22010KT P6SM SCT150 OVC250
     FM031000 21010KT P6SM BKN025
     FM031500 25013KT P6SM OVC100
     FM031800 24014KT P6SM SCT050 PROB30 0318/0321 P6SM TS BKN050CB=



000
FTUS44 KBMX 022326
TAFTCL
TAF
KTCL 022326Z 0300/0324 22008KT P6SM SCT150 OVC250
     FM030600 21012KT P6SM BKN025
     FM031200 23012KT P6SM VCTS BKN015CB=



000
FTUS44 KBMX 022326
TAFEET
TAF
KEET 022326Z 0300/0324 20006KT P6SM SCT150 OVC250
     FM031000 22008KT P6SM BKN025
     FM031500 25010KT P6SM OVC100
     FM031800 26012KT P6SM OVC250=



000
FTUS44 KBMX 022326
TAFANB
TAF
KANB 022326Z 0300/0324 22008KT P6SM SCT150 OVC250
     FM031000 21010KT P6SM BKN025
     FM031500 25010KT P6SM OVC100
     FM031800 25012G22KT P6SM BKN250 PROB30 0318/0319 4SM TS
      BKN050CB=



000
FTUS44 KBMX 021958 AAA
TAFBHM
TAF AMD
KBHM 021958Z 0220/0318 24015G23KT P6SM VCSH BKN040
     FM030000 22012KT P6SM SCT025 OVC200
     FM030600 21012G17KT P6SM BKN025
     FM031200 23012G17KT P6SM VCTS BKN015CB=



000
FTUS44 KBMX 021734
TAFANB
TAF
KANB 021734Z 0218/0318 22010G17KT 6SM SHRA BR SCT050 BKN150
     FM030000 22012KT P6SM SCT025 OVC200
     FM030600 21012G17KT P6SM BKN025
     FM031200 23012G17KT P6SM VCTS BKN015CB=



000
FTUS44 KBMX 021734
TAFBHM
TAF
KBHM 021734Z 0218/0318 24010G17KT P6SM VCSH BKN040
     FM030000 22012KT P6SM SCT025 OVC200
     FM030600 21012G17KT P6SM BKN025
     FM031200 23012G17KT P6SM VCTS BKN015CB=



000
FTUS44 KBMX 021734
TAFEET
TAF
KEET 021734Z 0218/0318 22010G17KT 6SM SHRA BR SCT050 BKN150
     FM030000 22012KT P6SM SCT025 OVC200
     FM030600 21012G17KT P6SM BKN025
     FM031200 23012G17KT P6SM VCTS BKN015CB=



000
FTUS44 KBMX 021734
TAFTOI
TAF
KTOI 021734Z 0218/0318 23010KT P6SM VCTS SCT030 BKN040CB
     FM022100 23008KT P6SM BKN040
     FM030000 22007KT P6SM SCT025 BKN200
     FM030600 23010G17KT P6SM BKN030=



000
FTUS44 KBMX 021734
TAFMGM
TAF
KMGM 021734Z 0218/0318 25010G17KT P6SM SCT040 BKN150
     FM022000 25010KT P6SM VCTS BKN040CB
     FM030000 22010KT P6SM SCT025 BKN200
     FM030600 23010G17KT P6SM BKN030=



000
FTUS44 KBMX 021734
TAFTCL
TAF
KTCL 021734Z 0218/0318 23010G17KT P6SM VCTS BKN040CB
     FM030000 22012KT P6SM SCT025 OVC200
     FM030600 21012G17KT P6SM BKN025
     FM031200 23012G17KT P6SM VCTS BKN015CB=



000
FTUS44 KBMX 021721 AAC
TAFTOI
TAF AMD
KTOI 021721Z 0217/0312 20005KT P6SM TS SCT020 BKN030CB
     FM021800 23010KT P6SM VCTS SCT030 BKN040CB
     FM022100 23008KT P6SM BKN040
     FM030000 20007KT P6SM SCT025 BKN200=



000
FTUS44 KBMX 021704 AAA
TAFMGM
TAF AMD
KMGM 021704Z 0217/0312 25010G17KT P6SM SCT040 BKN150
     FM022000 25010KT P6SM VCTS BKN040CB
     FM030000 20010KT P6SM SCT025 BKN200=



000
FTUS44 KBMX 021703 AAD
TAFEET
TAF AMD
KEET 021703Z 0217/0312 22010G17KT 6SM SHRA BR SCT050 BKN150
     FM030000 22009KT P6SM SCT025 OVC200
     FM030600 20009KT P6SM VCTS BKN025CB=



000
FTUS44 KBMX 021703 AAC
TAFANB
TAF AMD
KANB 021703Z 0217/0312 22010G17KT 6SM SHRA BR SCT050 BKN150
     FM030000 23009KT P6SM SCT025 OVC200
     FM030600 23009KT P6SM VCTS BKN025CB=



000
FTUS44 KBMX 021701 AAC
TAFBHM
TAF AMD
KBHM 021701Z 0217/0312 24010G17KT P6SM VCSH BKN040
     FM030000 22012KT P6SM SCT025 OVC200
     FM030600 21012KT P6SM VCTS BKN025CB=



000
FTUS44 KBMX 021701 AAC
TAFBHM
TAF AMD
KBHM 021701Z 0217/0312 24010G17KT P6SM VCSH BKN040
     FM030000 22012KT P6SM SCT025 OVC200
     FM030600 21012KT P6SM VCTS BKN025CB=



000
FTUS44 KBMX 021638 AAB
TAFTOI
TAF AMD
KTOI 021638Z 0217/0312 20005KT P6SM VCTS SCT020 BKN040CB
     FM022100 23008KT P6SM BKN040
     FM030000 20007KT P6SM SCT025 BKN200=



000
FTUS44 KBMX 021638 AAA
TAFTOI
TAF AMD
KTOI 021638Z 0217/0312 20005KT P6SM VCTS SCT020 BKN030CB
     FM022100 23008KT P6SM BKN040
     FM030000 20007KT P6SM SCT025 BKN200=



000
FTUS44 KBMX 021636 AAB
TAFANB
TAF AMD
KANB 021636Z 0217/0312 22005KT 6SM SHRA BR SCT015 BKN150
     FM021800 24009KT P6SM BKN040
     FM030000 23009KT P6SM SCT025 OVC200
     FM030600 23009KT P6SM VCTS BKN025CB=



000
FTUS44 KBMX 021549 AAC
TAFEET
TAF AMD
KEET 021549Z 0216/0312 20004KT 6SM SHRA BR SCT015 BKN150
     FM021800 23009KT P6SM VCSH BKN040
     FM030000 22009KT P6SM SCT025 OVC200
     FM030600 20009KT P6SM VCTS BKN025CB=



000
FTUS44 KBMX 021549 AAB
TAFBHM
TAF AMD
KBHM 021549Z 0216/0312 24010KT 6SM SHRA BR SCT020 BKN150
     FM021700 24010KT P6SM VCSH BKN040
     FM030000 22012KT P6SM SCT025 OVC200
     FM030600 21012KT P6SM VCTS BKN025CB=



000
FTUS44 KBMX 021548 AAA
TAFBHM
TAF AMD
KBHM 021548Z 0216/0312 24010KT 6SM SHRA BR SCT020 BKN150
     FM021700 24010KT P6SM VCTS BKN040CB
     FM030000 22012KT P6SM SCT025 OVC200
     FM030600 21012KT P6SM VCTS BKN025CB=



000
FTUS44 KBMX 021423 AAB
TAFEET
TAF AMD
KEET 021423Z 0214/0312 20004KT 6SM BR VCSH OVC008
     FM021600 23009KT P6SM BKN015
     FM021800 23009KT P6SM VCTS BKN040CB
     FM030000 22009KT P6SM SCT025 OVC200
     FM030600 20009KT P6SM VCTS BKN025CB=



000
FTUS44 KBMX 021423 AAA
TAFTCL
TAF AMD
KTCL 021423Z 0214/0312 19004KT P6SM VCSH SCT015 BKN040
     FM021700 23009KT P6SM VCTS BKN040CB
     FM030000 22009KT P6SM SCT025 OVC200
     FM030600 20009KT P6SM VCTS BKN025CB=



000
FTUS44 KBMX 021400 AAA
TAFANB
TAF AMD
KANB 021400Z 0214/0312 22005KT P6SM BKN010
     FM021600 24009KT P6SM BKN020
     FM021800 24009KT P6SM VCTS BKN040CB
     FM030000 23009KT P6SM SCT025 OVC200
     FM030600 23009KT P6SM VCTS BKN025CB=



000
FTUS44 KBMX 021400 AAA
TAFANB
TAF AMD
KANB 021400Z 0214/0312 22005KT P6SM BKN010
     FM021600 24009KT P6SM BKN020
     FM021800 24009KT P6SM VCTS BKN040CB
     FM030000 23009KT P6SM SCT025 OVC200
     FM030600 23009KT P6SM VCTS BKN025CB=



000
FTUS44 KBMX 021359 AAA
TAFEET
TAF AMD
KEET 021359Z 0214/0312 20004KT 6SM BR OVC008
     FM021600 23009KT P6SM BKN015
     FM021800 23009KT P6SM VCTS BKN040CB
     FM030000 22009KT P6SM SCT025 OVC200
     FM030600 20009KT P6SM VCTS BKN025CB=



000
FTUS44 KBMX 021128
TAFTCL
TAF
KTCL 021128Z 0212/0312 19004KT P6SM BKN200
     FM021400 23009KT P6SM BKN020
     FM021700 23009KT P6SM VCTS BKN040CB
     FM030000 22009KT P6SM SCT025 OVC200
     FM030600 20009KT P6SM VCTS BKN025CB=



000
FTUS44 KBMX 021128
TAFANB
TAF
KANB 021128Z 0212/0312 22005KT P6SM BKN015
     FM021400 24009KT P6SM BKN020
     FM021700 24009KT P6SM VCTS BKN040CB
     FM030000 23009KT P6SM SCT025 OVC200
     FM030600 23009KT P6SM VCTS BKN025CB=



000
FTUS44 KBMX 021128
TAFTOI
TAF
KTOI 021128Z 0212/0312 20005KT P6SM SCT020 BKN030
     FM021700 25009KT P6SM VCTS BKN040CB
     FM030000 20007KT P6SM SCT025 BKN200=



000
FTUS44 KBMX 021128
TAFEET
TAF
KEET 021128Z 0212/0312 20004KT 6SM BR BKN004 OVC010
     FM021400 23009KT P6SM BKN020
     FM021700 23009KT P6SM VCTS BKN040CB
     FM030000 22009KT P6SM SCT025 OVC200
     FM030600 20009KT P6SM VCTS BKN025CB=



000
FTUS44 KBMX 021128
TAFMGM
TAF
KMGM 021128Z 0212/0312 21007KT P6SM SCT020 BKN030
     FM021700 25010KT P6SM VCTS BKN040CB
     FM030000 20010KT P6SM SCT025 BKN200=



000
FTUS44 KBMX 021128
TAFBHM
TAF
KBHM 021128Z 0212/0312 22007KT P6SM BKN010
     FM021400 24010KT P6SM BKN020
     FM021700 24010KT P6SM VCTS BKN040CB
     FM030000 22012KT P6SM SCT025 OVC200
     FM030600 21012KT P6SM VCTS BKN025CB=



000
FTUS44 KBMX 021054 AAA
TAFMGM
TAF AMD
KMGM 021054Z 0211/0306 21007KT P6SM SCT020
     FM021700 25007KT P6SM VCTS SCT050CB
     FM030000 18007KT P6SM OVC250=



000
FTUS44 KBMX 021054 AAA
TAFMGM
TAF AMD
KMGM 021054Z 0211/0306 21007KT P6SM SCT020
     FM021700 25007KT P6SM VCTS SCT050CB
     FM030000 18007KT P6SM OVC250=



000
FTUS44 KBMX 021053 AAA
TAFEET
TAF AMD
KEET 021053Z 0211/0306 VRB03KT 6SM BR BKN004
     FM021300 23006KT P6SM SCT050
     FM021600 22004KT P6SM VCTS SCT050CB
     FM030000 19006KT P6SM OVC250=



000
FTUS44 KBMX 021053 AAA
TAFTCL
TAF AMD
KTCL 021053Z 0211/0306 19004KT P6SM BKN200
     FM021400 21007KT P6SM SCT020
     FM021600 22010KT P6SM VCTS SCT050CB BKN250
     FM030000 18008KT P6SM OVC250=



000
FTUS44 KBMX 021052 AAB
TAFANB
TAF AMD
KANB 021052Z 0211/0306 22005KT P6SM BKN015
     FM021400 23007KT P6SM SCT015
     FM021800 24009KT P6SM VCTS SCT050CB
     FM030000 22005KT P6SM OVC250=



000
FTUS44 KBMX 020738 AAA
TAFANB
TAF AMD
KANB 020738Z 0208/0306 21005KT 4SM BR SCT002
      TEMPO 0208/0211 2SM BR BKN002
     FM021400 23007KT P6SM SCT015
     FM021800 24009KT P6SM VCTS SCT050CB
     FM030000 22005KT P6SM OVC250=



000
FTUS44 KBMX 020736 AAB
TAFTOI
TAF AMD
KTOI 020736Z 0208/0306 20005KT P6SM SCT022
     FM021500 21007KT P6SM SCT050
     FM021700 24007KT P6SM VCTS SCT050CB
     FM030000 20004KT P6SM OVC250=



000
FTUS44 KBMX 020619 AAA
TAFTOI
TAF AMD
KTOI 020619Z 0206/0306 20005KT P6SM BKN022
     FM021500 21007KT P6SM SCT050
     FM021700 24007KT P6SM VCTS SCT050CB
     FM030000 20004KT P6SM OVC250=



000
FTUS44 KBMX 020520
TAFANB
TAF
KANB 020520Z 0206/0306 21005KT P6SM OVC200
     FM021600 24009KT P6SM VCTS SCT050CB
     FM030000 22005KT P6SM OVC250=



000
FTUS44 KBMX 020520
TAFEET
TAF
KEET 020520Z 0206/0306 20005KT P6SM BKN200
     FM021100 17004KT 6SM BR OVC019
     FM021400 23006KT P6SM SCT050
     FM021600 22004KT P6SM VCTS SCT050CB
     FM030000 19006KT P6SM OVC250=



000
FTUS44 KBMX 020520
TAFBHM
TAF
KBHM 020520Z 0206/0306 18005KT P6SM BKN200
     FM021100 22007KT P6SM OVC019
     FM021500 25010KT P6SM SCT050
     FM021600 22009KT P6SM VCTS SCT050CB
     FM030000 20012KT P6SM OVC250=



000
FTUS44 KBMX 020520
TAFTCL
TAF
KTCL 020520Z 0206/0306 18005KT P6SM OVC200
     FM021000 19004KT P6SM OVC030
     FM021500 21007KT P6SM SCT050
     FM021600 22010KT P6SM VCTS SCT050CB BKN250
     FM030000 18008KT P6SM OVC250=



000
FTUS44 KBMX 020520
TAFTOI
TAF
KTOI 020520Z 0206/0306 20005KT P6SM FEW050
     FM021000 19004KT P6SM OVC030
     FM021500 21007KT P6SM SCT050
     FM021700 24007KT P6SM VCTS SCT050CB
     FM030000 20004KT P6SM OVC250=



000
FTUS44 KBMX 020520
TAFMGM
TAF
KMGM 020520Z 0206/0306 19005KT P6SM FEW050
     FM021000 19004KT P6SM OVC030
     FM021500 21007KT P6SM SCT050
     FM021700 25007KT P6SM VCTS SCT050CB
     FM030000 18007KT P6SM OVC250=



000
FTUS44 KBMX 020142 AAB
TAFEET
TAF AMD
KEET 020142Z 0202/0224 20005KT 1SM TSRA SCT040CB OVC150
     FM020300 23005KT P6SM BKN200
     FM021800 22004KT P6SM VCTS SCT050CB PROB30 0218/0222 P6SM TS
      BKN050CB=



000
FTUS44 KBMX 020142 AAB
TAFEET
TAF AMD
KEET 020142Z 0202/0224 20005KT 1SM TSRA SCT040CB OVC150
     FM020300 23005KT P6SM BKN200
     FM021800 22004KT P6SM VCTS SCT050CB PROB30 0218/0222 P6SM TS
      BKN050CB=



000
FTUS44 KBMX 020115 AAA
TAFEET
TAF AMD
KEET 020115Z 0201/0224 20005KT 1SM TSRA SCT040CB OVC150
     FM020200 23005KT P6SM BKN200
     FM021800 22004KT P6SM VCTS SCT050CB PROB30 0218/0222 P6SM TS
      BKN050CB=



000
FTUS44 KBMX 020115 AAA
TAFEET
TAF AMD
KEET 020115Z 0201/0224 20005KT 1SM TSRA SCT040CB OVC150
     FM020200 23005KT P6SM BKN200
     FM021800 22004KT P6SM VCTS SCT050CB PROB30 0218/0222 P6SM TS
      BKN050CB=



000
FTUS44 KBMX 012323
TAFTOI
TAF
KTOI 012323Z 0200/0224 23005KT P6SM FEW050
     FM021900 24007KT P6SM SCT050 PROB30 0219/0223 P6SM -TSRA
      BKN050CB=



000
FTUS44 KBMX 012323
TAFANB
TAF
KANB 012323Z 0200/0224 29004KT P6SM -SHRA SCT060 OVC200
     FM020100 23005KT P6SM OVC200
     FM021800 24009KT P6SM VCTS SCT050CB PROB30 0219/0223 4SM TSRA
      BKN050CB=



000
FTUS44 KBMX 012323
TAFBHM
TAF
KBHM 012323Z 0200/0224 25010KT P6SM VCTS SCT040CB OVC250
     FM020100 22005KT P6SM BKN200
     FM021800 22009KT P6SM VCTS SCT050CB PROB30 0218/0222 P6SM TS
      BKN050CB=



000
FTUS44 KBMX 012323
TAFTCL
TAF
KTCL 012323Z 0200/0224 22006KT P6SM VCTS BKN040CB
     FM020200 22005KT P6SM OVC200
     FM021800 22010KT P6SM VCTS SCT050CB BKN250=



000
FTUS44 KBMX 012323
TAFEET
TAF
KEET 012323Z 0200/0224 20005KT P6SM VCTS SCT040CB OVC150
      TEMPO 0200/0201 VRB07G17KT TSRA BKN040CB
     FM020130 23005KT P6SM BKN200
     FM021800 22004KT P6SM VCTS SCT050CB PROB30 0218/0222 P6SM TS
      BKN050CB=



000
FTUS44 KBMX 012323
TAFTOI
TAF
KTOI 012323Z 0200/0224 23005KT P6SM FEW050
     FM021900 24007KT P6SM SCT050 PROB30 0219/0223 P6SM -TSRA
      BKN050CB=



000
FTUS44 KBMX 012323
TAFMGM
TAF
KMGM 012323Z 0200/0224 24005KT P6SM FEW050
     FM021800 25007KT P6SM SCT050 PROB30 0218/0222 P6SM -TSRA
      BKN050CB=



000
FTUS44 KBMX 012323
TAFMGM
TAF
KMGM 012323Z 0200/0224 24005KT P6SM FEW050
     FM021800 25007KT P6SM SCT050 PROB30 0218/0222 P6SM -TSRA
      BKN050CB=



000
FTUS44 KBMX 012323
TAFANB
TAF
KANB 012323Z 0200/0224 29004KT P6SM -SHRA SCT060 OVC200
     FM020100 23005KT P6SM OVC200
     FM021800 24009KT P6SM VCTS SCT050CB PROB30 0219/0223 4SM TSRA
      BKN050CB=



000
FTUS44 KBMX 012323
TAFEET
TAF
KEET 012323Z 0200/0224 20005KT P6SM VCTS SCT040CB OVC150
      TEMPO 0200/0201 VRB07G17KT TSRA BKN040CB
     FM020130 23005KT P6SM BKN200
     FM021800 22004KT P6SM VCTS SCT050CB PROB30 0218/0222 P6SM TS
      BKN050CB=



000
FTUS44 KBMX 012323
TAFTCL
TAF
KTCL 012323Z 0200/0224 22006KT P6SM VCTS BKN040CB
     FM020200 22005KT P6SM OVC200
     FM021800 22010KT P6SM VCTS SCT050CB BKN250=



000
FTUS44 KBMX 012323
TAFBHM
TAF
KBHM 012323Z 0200/0224 25010KT P6SM VCTS SCT040CB OVC250
     FM020100 22005KT P6SM BKN200
     FM021800 22009KT P6SM VCTS SCT050CB PROB30 0218/0222 P6SM TS
      BKN050CB=



000
FTUS44 KBMX 012208 AAA
TAFBHM
TAF AMD
KBHM 012208Z 0122/0218 25010KT P6SM VCTS SCT040CB OVC250
      TEMPO 0122/0123 VRB07G20KT TS BKN040CB
     FM020200 24005KT P6SM BKN200
     FM020600 24006KT P6SM VCTS BKN050CB=



000
FTUS44 KBMX 012043 AAA
TAFANB
TAF AMD
KANB 012043Z 0121/0218 24007KT P6SM VCTS SCT040CB OVC200
      TEMPO 0121/0122 VRB07G18KT 5SM TSRA BKN040CB OVC150
     FM020200 23005KT P6SM OVC200
     FM020600 24006KT P6SM VCTS BKN050CB=



000
FTUS44 KBMX 011739
TAFANB
TAF
KANB 011739Z 0118/0218 25009KT P6SM VCTS BKN040CB
     FM020200 23005KT P6SM OVC200
     FM020600 24006KT P6SM VCTS BKN050CB=



000
FTUS44 KBMX 011739
TAFBHM
TAF
KBHM 011739Z 0118/0218 25010KT P6SM VCTS BKN040CB
     FM020200 24005KT P6SM BKN200
     FM020600 24006KT P6SM VCTS BKN050CB=



000
FTUS44 KBMX 011739
TAFTCL
TAF
KTCL 011739Z 0118/0218 25009KT P6SM VCTS BKN040CB
     FM020200 22005KT P6SM OVC200
     FM020600 24006KT P6SM VCTS BKN050CB=



000
FTUS44 KBMX 011739
TAFEET
TAF
KEET 011739Z 0118/0218 25009KT P6SM VCTS BKN040CB
     FM020200 23005KT P6SM BKN200
     FM020600 24006KT P6SM VCTS BKN050CB=



000
FTUS44 KBMX 011739
TAFMGM
TAF
KMGM 011739Z 0118/0218 22004KT P6SM SCT040
     FM012000 25009KT P6SM BKN040
     FM020300 23005KT P6SM OVC200=



000
FTUS44 KBMX 011739
TAFTOI
TAF
KTOI 011739Z 0118/0218 24010KT P6SM SKC
     FM012000 25009KT P6SM BKN040
     FM020300 23005KT P6SM OVC200=



000
FTUS44 KBMX 011725 AAA
TAFTOI
TAF AMD
KTOI 011725Z 0117/0212 24010KT P6SM SKC
     FM012000 25009KT P6SM BKN040
     FM020300 23005KT P6SM OVC200=



000
FTUS44 KBMX 011725 AAA
TAFTOI
TAF AMD
KTOI 011725Z 0117/0212 24010KT P6SM SKC
     FM012000 25009KT P6SM BKN040
     FM020300 23005KT P6SM OVC200=



000
FTUS44 KBMX 011724 AAA
TAFMGM
TAF AMD
KMGM 011724Z 0117/0212 22004KT P6SM SCT040
     FM012000 25009KT P6SM BKN040
     FM020300 23005KT P6SM OVC200=



000
FTUS44 KBMX 011724 AAA
TAFMGM
TAF AMD
KMGM 011724Z 0117/0212 22004KT P6SM SCT040
     FM012000 25009KT P6SM BKN040
     FM020300 23005KT P6SM OVC200=



000
FTUS44 KBMX 011715 AAB
TAFBHM
TAF AMD
KBHM 011715Z 0117/0212 24008KT P6SM SCT040 BKN200
     FM011800 26010KT P6SM VCTS BKN040CB
     FM020200 24005KT P6SM OVC200=



000
FTUS44 KBMX 011715 AAA
TAFTCL
TAF AMD
KTCL 011715Z 0117/0212 23007KT P6SM BKN025
     FM011800 25009KT P6SM VCTS BKN040CB
     FM020200 22005KT P6SM OVC200=



000
FTUS44 KBMX 011715 AAB
TAFBHM
TAF AMD
KBHM 011715Z 0117/0212 24008KT P6SM SCT040 BKN200
     FM011800 26010KT P6SM VCTS BKN040CB
     FM020200 24005KT P6SM OVC200=



000
FTUS44 KBMX 011715 AAA
TAFTCL
TAF AMD
KTCL 011715Z 0117/0212 23007KT P6SM BKN025
     FM011800 25009KT P6SM VCTS BKN040CB
     FM020200 22005KT P6SM OVC200=



000
FTUS44 KBMX 011713 AAC
TAFEET
TAF AMD
KEET 011713Z 0117/0212 23004KT P6SM SCT040 BKN200
     FM011800 25009KT P6SM VCTS BKN040CB
     FM020200 23005KT P6SM OVC200=



000
FTUS44 KBMX 011713 AAC
TAFEET
TAF AMD
KEET 011713Z 0117/0212 23004KT P6SM SCT040 BKN200
     FM011800 25009KT P6SM VCTS BKN040CB
     FM020200 23005KT P6SM OVC200=



000
FTUS44 KBMX 011449 AAB
TAFEET
TAF AMD
KEET 011449Z 0115/0212 23004KT P6SM BKN008
     FM011630 24007KT P6SM BKN020
     FM011800 25009KT P6SM VCTS BKN040CB
     FM020200 23005KT P6SM OVC200=



000
FTUS44 KBMX 011245 AAA
TAFANB
TAF AMD
KANB 011245Z 0113/0212 23004KT P6SM OVC012
     FM011400 24007KT P6SM SCT020
     FM011800 25009KT P6SM VCTS BKN040CB
     FM020200 23005KT P6SM OVC200=



000
FTUS44 KBMX 011211 AAA
TAFBHM
TAF AMD
KBHM 011211Z 0112/0212 23006KT P6SM OVC009
     FM011300 23006KT P6SM OVC012
     FM011500 25007KT P6SM SCT025
     FM011800 26009KT P6SM VCTS BKN040CB
     FM020200 24005KT P6SM OVC200=



000
FTUS44 KBMX 011211 AAA
TAFBHM
TAF AMD
KBHM 011211Z 0112/0212 23006KT P6SM OVC009
     FM011300 23006KT P6SM OVC012
     FM011500 25007KT P6SM SCT025
     FM011800 26009KT P6SM VCTS BKN040CB
     FM020200 24005KT P6SM OVC200=



000
FTUS44 KBMX 011153 AAA
TAFEET
TAF AMD
KEET 011153Z 0112/0212 23004KT P6SM SCT004
      TEMPO 0112/0114 BKN004
     FM011500 24007KT P6SM SCT020
     FM011800 25009KT P6SM VCTS BKN040CB
     FM020200 23005KT P6SM OVC200=



000
FTUS44 KBMX 011153 AAA
TAFEET
TAF AMD
KEET 011153Z 0112/0212 23004KT P6SM SCT004
      TEMPO 0112/0114 BKN004
     FM011500 24007KT P6SM SCT020
     FM011800 25009KT P6SM VCTS BKN040CB
     FM020200 23005KT P6SM OVC200=



    US Dept of Commerce
    National Oceanic and Atmospheric Administration
    National Weather Service
    1325 East West Highway
    Silver Spring, MD 20910
    Page Author: NWS Internet Services Team
Disclaimer
Information Quality
Credits
Glossary
Privacy Policy
Freedom of Information Act (FOIA)
About Us
Career Opportunities